This is the latest recevied weather packets stored in our database for station/object W4SMH. If no packets are shown the sender has not sent any weather packets the latest 10 day(s).
| Time | Temp. | Humidity | Pressure | Rain* | Wind** | Luminosity | Snow |
|---|---|---|---|---|---|---|---|
| 1777555463 | 6.11° C | 94% | 1015.1 hPa | 0.25 mm | - | 404 W/m² | - |
| 1777555398 | 6.11° C | 94% | 1015.1 hPa | 0.25 mm | - | 397 W/m² | - |
| 1777555214 | 5.56° C | 94% | 1015.1 hPa | 0.25 mm | - | 387 W/m² | - |
| 1777555147 | 5.56° C | 94% | 1015.1 hPa | 0.25 mm | - | 381 W/m² | - |
| 1777555003 | 5° C | 94% | 1015 hPa | 0.25 mm | - | 359 W/m² | - |
| 1777554683 | 4.44° C | 93% | 1015 hPa | 0.25 mm | - | 332 W/m² | - |
| 1777553302 | 3.33° C | 93% | 1014.9 hPa | 0.25 mm | - | 250 W/m² | - |
| 1777553267 | 3.33° C | 93% | 1014.9 hPa | 0.25 mm | - | 251 W/m² | - |
| 1777552079 | 2.78° C | 92% | 1014.8 hPa | 0 mm | - | 186 W/m² | - |
| 1777551649 | 2.22° C | 92% | 1015.1 hPa | 0 mm | - | 116 W/m² | - |
| 1777551625 | 2.22° C | 92% | 1015 hPa | 0 mm | - | 128 W/m² | - |
| 1777551399 | 2.22° C | 92% | 1015 hPa | 0 mm | - | 102 W/m² | - |
| 1777550253 | 1.67° C | 92% | 1014.9 hPa | 0 mm | - | 69 W/m² | - |
| 1777550124 | 1.67° C | 92% | 1015 hPa | 0 mm | - | 60 W/m² | - |
| 1777549569 | 1.67° C | 92% | 1015 hPa | 0 mm | - | 37 W/m² | - |
| 1777549545 | 1.67° C | 92% | 1015 hPa | 0 mm | - | 32 W/m² | - |
| 1777548367 | 11.11° C | 77% | 1009.9 hPa | 0 mm | - | 214 W/m² | - |
| 1777548355 | 11.11° C | 76% | 1009.6 hPa | 0 mm | - | 229 W/m² | - |
| 1777548351 | 11.11° C | 77% | 1009.5 hPa | 0 mm | - | 192 W/m² | - |
| 1777548242 | 1.11° C | 92% | 1015.1 hPa | 0 mm | - | 30 W/m² | - |
| 1777548031 | 1.11° C | 92% | 1014.9 hPa | 0 mm | - | 28 W/m² | - |
| 1777547903 | 1.11° C | 92% | 1014.9 hPa | 0 mm | - | 25 W/m² | - |
| 1777547708 | 1.11° C | 92% | 1014.9 hPa | 0 mm | - | 23 W/m² | - |
| 1777547614 | 1.11° C | 92% | 1014.9 hPa | 0 mm | - | 16 W/m² | - |
| 1777547584 | 1.67° C | 92% | 1015 hPa | 0 mm | - | 16 W/m² | - |
* Rain latest hour (hover to see other rain measurements)
** Current wind speed in m/s (hover to see current wind gust speed)